createdAt,value
2019-04-19T00:01:15.804Z,8.90
2019-04-19T00:03:44.092Z,8.70
2019-04-19T00:06:18.325Z,9.20
2019-04-19T00:09:00.052Z,9.20
2019-04-19T00:11:18.887Z,9.50
2019-04-19T00:13:37.148Z,9.30
2019-04-19T00:16:04.651Z,9.10
2019-04-19T00:18:31.294Z,8.70
2019-04-19T00:21:19.351Z,8.50
2019-04-19T00:23:34.857Z,8.30
2019-04-19T00:25:55.751Z,8.20
2019-04-19T00:28:35.312Z,8.60
2019-04-19T00:30:59.229Z,8.60
2019-04-19T00:33:28.302Z,8.20
2019-04-19T00:35:49.625Z,8.60
2019-04-19T00:38:35.171Z,8.40
2019-04-19T00:41:03.080Z,8.30
2019-04-19T00:43:34.152Z,8.60
2019-04-19T00:46:03.331Z,8.80
2019-04-19T00:48:30.082Z,8.50
2019-04-19T00:50:52.980Z,8.20
2019-04-19T00:53:21.698Z,8.30
2019-04-19T00:55:49.637Z,8.50
2019-04-19T00:58:12.240Z,8.70
2019-04-19T01:00:36.781Z,8.40
2019-04-19T01:03:02.649Z,8.60
2019-04-19T01:05:31.975Z,8.60
2019-04-19T01:08:00.834Z,8.90
2019-04-19T01:10:38.227Z,8.90
2019-04-19T01:13:08.077Z,8.70
2019-04-19T01:15:31.863Z,8.20
2019-04-19T01:18:10.697Z,8.00
2019-04-19T01:20:20.691Z,7.50
2019-04-19T01:22:55.817Z,7.40
2019-04-19T01:25:22.684Z,7.40
2019-04-19T01:27:44.883Z,7.20
2019-04-19T01:30:12.552Z,7.30
2019-04-19T01:32:47.031Z,7.10
2019-04-19T01:35:12.955Z,7.20
2019-04-19T01:37:37.000Z,7.30
2019-04-19T01:40:18.524Z,7.10
2019-04-19T01:42:50.722Z,7.20
2019-04-19T01:45:15.340Z,6.90
2019-04-19T01:47:47.740Z,6.90
2019-04-19T01:50:09.724Z,6.80
2019-04-19T01:55:09.013Z,6.50
2019-04-19T01:57:24.347Z,6.80
2019-04-19T01:59:55.410Z,7.30
2019-04-19T02:02:24.002Z,7.40
2019-04-19T02:04:53.012Z,7.20
2019-04-19T02:07:22.301Z,7.00
2019-04-19T02:09:59.192Z,7.40
2019-04-19T02:12:26.182Z,7.10
2019-04-19T02:14:50.605Z,6.80
2019-04-19T02:17:13.649Z,6.60
2019-04-19T02:19:47.328Z,6.80
2019-04-19T02:22:17.466Z,6.50
2019-04-19T02:24:42.297Z,6.50
2019-04-19T02:27:08.221Z,6.70
2019-04-19T02:29:35.087Z,6.60
2019-04-19T02:34:54.584Z,6.50
2019-04-19T02:49:51.513Z,6.80
2019-04-19T02:52:22.174Z,6.50
2019-04-19T02:54:54.126Z,6.30
2019-04-19T02:57:22.963Z,6.50
2019-04-19T02:59:47.790Z,6.60
2019-04-19T03:02:28.751Z,6.40
2019-04-19T03:04:53.787Z,6.70
2019-04-19T03:06:49.165Z,6.50
2019-04-19T03:09:11.332Z,6.30
2019-04-19T03:11:53.312Z,6.40
2019-04-19T03:14:20.635Z,6.50
2019-04-19T03:16:57.908Z,6.40
2019-04-19T03:19:14.781Z,6.40
2019-04-19T03:21:46.879Z,6.40
2019-04-19T03:24:15.357Z,6.00
2019-04-19T03:26:45.928Z,6.40
2019-04-19T03:29:08.879Z,6.30
2019-04-19T03:32:02.134Z,6.40
2019-04-19T03:34:31.517Z,6.10
2019-04-19T03:36:42.629Z,6.10
2019-04-19T03:39:18.011Z,6.00
2019-04-19T03:44:10.153Z,6.00
2019-04-19T03:46:46.102Z,6.10
2019-04-19T03:49:09.300Z,6.00
2019-04-19T03:51:28.816Z,6.10
2019-04-19T03:54:00.610Z,5.80
2019-04-19T03:56:36.238Z,5.70
2019-04-19T03:58:41.808Z,5.70
2019-04-19T04:01:08.708Z,5.70
2019-04-19T04:03:40.484Z,5.70
2019-04-19T04:06:03.979Z,5.90
2019-04-19T04:08:32.307Z,5.70
2019-04-19T04:11:00.202Z,5.80
2019-04-19T04:13:38.466Z,6.20
2019-04-19T04:16:09.854Z,5.90
2019-04-19T04:18:25.643Z,6.40
2019-04-19T04:20:56.996Z,6.80
2019-04-19T04:23:29.972Z,6.60
2019-04-19T04:25:59.103Z,6.00
2019-04-19T04:28:36.715Z,6.00
2019-04-19T04:30:57.285Z,6.40
2019-04-19T04:33:30.984Z,6.30
2019-04-19T04:35:57.072Z,6.10
2019-04-19T04:38:21.750Z,5.90
2019-04-19T04:40:40.825Z,5.80
2019-04-19T04:43:20.343Z,6.00
2019-04-19T04:46:01.977Z,6.10
2019-04-19T04:48:29.307Z,6.30
2019-04-19T04:50:56.185Z,6.30
2019-04-19T04:53:02.801Z,6.50
2019-04-19T04:55:30.474Z,6.60
2019-04-19T04:58:00.982Z,7.10
2019-04-19T05:00:32.857Z,7.00
2019-04-19T05:03:09.284Z,7.20
2019-04-19T05:05:38.418Z,7.40
2019-04-19T05:08:14.189Z,7.40
2019-04-19T05:10:33.231Z,7.30
2019-04-19T05:15:36.423Z,8.20
2019-04-19T05:18:12.363Z,8.10
2019-04-19T05:20:29.136Z,8.30
2019-04-19T05:22:59.413Z,8.20
2019-04-19T05:25:35.725Z,8.50
2019-04-19T05:27:55.621Z,9.00
2019-04-19T05:30:07.157Z,9.00
2019-04-19T05:32:36.513Z,9.20
2019-04-19T05:35:15.420Z,9.20
2019-04-19T05:37:49.896Z,9.40
2019-04-19T05:40:15.213Z,9.20
2019-04-19T05:42:46.965Z,9.70
2019-04-19T05:45:26.273Z,10.30
2019-04-19T05:47:37.613Z,10.60
2019-04-19T05:50:17.135Z,11.10
2019-04-19T05:52:39.464Z,11.20
2019-04-19T05:54:49.810Z,11.80
2019-04-19T05:57:37.135Z,12.20
2019-04-19T05:59:54.679Z,12.40
2019-04-19T06:02:24.459Z,12.50
2019-04-19T06:05:09.108Z,12.60
2019-04-19T06:07:26.502Z,12.40
2019-04-19T06:09:38.969Z,12.80
2019-04-19T06:12:13.539Z,12.80
2019-04-19T06:14:59.027Z,12.90
2019-04-19T06:17:38.757Z,13.10
2019-04-19T06:20:13.665Z,13.20
2019-04-19T06:22:41.726Z,13.30
2019-04-19T06:25:06.943Z,13.10
2019-04-19T06:27:53.217Z,13.20
2019-04-19T06:30:10.147Z,13.10
2019-04-19T06:32:42.079Z,13.00
2019-04-19T06:35:00.254Z,13.30
2019-04-19T06:37:17.033Z,13.60
2019-04-19T06:39:39.986Z,13.70
2019-04-19T06:42:10.223Z,14.00
2019-04-19T06:45:00.486Z,13.60
2019-04-19T06:47:15.762Z,13.70
2019-04-19T06:49:34.357Z,13.80
2019-04-19T06:52:09.744Z,14.00
2019-04-19T06:54:36.638Z,13.70
2019-04-19T06:57:26.699Z,13.20
2019-04-19T06:59:57.737Z,13.20
2019-04-19T07:02:14.032Z,13.80
2019-04-19T07:04:52.272Z,14.00
2019-04-19T07:07:31.003Z,14.10
2019-04-19T07:10:15.307Z,14.40
2019-04-19T07:12:44.023Z,14.00
2019-04-19T07:15:06.650Z,14.30
2019-04-19T07:17:36.737Z,14.20
2019-04-19T07:20:06.086Z,14.60
2019-04-19T07:22:37.891Z,14.70
2019-04-19T07:25:13.590Z,14.70
2019-04-19T07:27:28.508Z,14.90
2019-04-19T07:29:40.474Z,15.20
2019-04-19T07:32:08.260Z,15.10
2019-04-19T07:34:48.105Z,15.30
2019-04-19T07:37:22.057Z,15.60
2019-04-19T07:40:01.013Z,16.00
2019-04-19T07:42:26.390Z,16.50
2019-04-19T07:44:37.373Z,16.60
2019-04-19T07:47:12.610Z,16.10
2019-04-19T07:49:25.360Z,16.00
2019-04-19T07:52:02.638Z,16.00
2019-04-19T08:07:19.657Z,17.20
2019-04-19T08:09:42.939Z,17.10
2019-04-19T08:12:13.052Z,17.50
2019-04-19T08:32:26.294Z,18.30
2019-04-19T08:35:01.809Z,17.90
2019-04-19T08:37:32.025Z,18.50
2019-04-19T08:40:18.233Z,18.80
2019-04-19T08:42:47.497Z,18.50
2019-04-19T08:45:09.928Z,18.50
2019-04-19T08:47:43.970Z,18.90
2019-04-19T08:50:11.880Z,19.30
2019-04-19T08:52:40.115Z,19.50
2019-04-19T08:55:33.791Z,19.60
2019-04-19T08:57:40.606Z,19.20
2019-04-19T09:00:41.073Z,19.00
2019-04-19T09:02:54.361Z,19.30
2019-04-19T09:05:27.236Z,19.40
2019-04-19T09:07:59.666Z,19.90
2019-04-19T09:10:40.105Z,20.10
2019-04-19T09:13:23.986Z,19.50
2019-04-19T09:15:41.000Z,19.30
2019-04-19T09:21:05.212Z,19.70
2019-04-19T09:23:27.324Z,19.70
2019-04-19T09:25:55.841Z,20.30
2019-04-19T09:28:42.590Z,20.50
2019-04-19T09:31:06.026Z,20.60
2019-04-19T09:33:32.613Z,21.00
2019-04-19T09:36:03.217Z,21.00
2019-04-19T09:38:43.356Z,20.70
2019-04-19T09:43:58.940Z,20.50
2019-04-19T09:46:14.881Z,20.60
2019-04-19T09:49:02.104Z,20.90
2019-04-19T09:51:34.495Z,20.20
2019-04-19T09:54:04.083Z,19.60
2019-04-19T09:59:10.199Z,20.80
2019-04-19T10:01:37.241Z,20.70
2019-04-19T10:04:04.163Z,21.20
2019-04-19T10:06:33.088Z,21.30
2019-04-19T10:09:11.205Z,21.60
2019-04-19T10:11:35.465Z,21.00
2019-04-19T10:14:06.539Z,21.50
2019-04-19T10:16:35.241Z,21.20
2019-04-19T10:19:06.179Z,21.40
2019-04-19T10:21:33.680Z,20.20
2019-04-19T10:24:01.793Z,20.90
2019-04-19T10:26:26.719Z,21.60
2019-04-19T10:28:53.706Z,21.60
2019-04-19T10:31:20.261Z,22.10
2019-04-19T10:33:53.188Z,22.50
2019-04-19T10:36:15.071Z,22.50
2019-04-19T10:38:41.587Z,22.70
2019-04-19T10:41:09.386Z,22.20
2019-04-19T10:43:37.050Z,22.20
2019-04-19T10:46:04.820Z,21.70
2019-04-19T10:48:32.711Z,22.00
2019-04-19T10:50:59.555Z,21.90
2019-04-19T10:53:26.209Z,22.10
2019-04-19T10:55:54.337Z,22.10
2019-04-19T10:58:21.392Z,22.30
2019-04-19T11:00:49.792Z,22.20
2019-04-19T11:03:16.919Z,21.80
2019-04-19T11:05:44.886Z,21.40
2019-04-19T11:08:12.719Z,21.90
2019-04-19T11:10:39.970Z,22.60
2019-04-19T11:15:38.407Z,22.50
2019-04-19T11:18:05.550Z,22.90
2019-04-19T11:20:40.281Z,22.60
2019-04-19T11:23:03.757Z,23.10
2019-04-19T11:25:30.444Z,22.70
2019-04-19T11:27:57.946Z,22.60
2019-04-19T11:30:24.627Z,23.10
2019-04-19T11:32:51.266Z,23.40
2019-04-19T11:35:19.378Z,23.90
2019-04-19T11:37:47.061Z,22.50
2019-04-19T11:40:15.056Z,22.90
2019-04-19T11:42:43.567Z,23.00
2019-04-19T11:45:11.984Z,23.30
2019-04-19T11:47:40.789Z,23.30
2019-04-19T11:50:07.814Z,23.30
2019-04-19T11:52:35.624Z,23.40
2019-04-19T11:55:04.636Z,22.60
2019-04-19T11:57:32.723Z,23.00
2019-04-19T12:00:00.716Z,23.80
2019-04-19T12:02:29.004Z,23.50
2019-04-19T12:04:57.865Z,23.50
2019-04-19T12:07:24.648Z,22.90
2019-04-19T12:09:52.397Z,22.90
2019-04-19T12:12:19.574Z,22.80
2019-04-19T12:14:46.469Z,23.30
2019-04-19T12:17:15.339Z,23.70
2019-04-19T12:19:51.747Z,23.90
2019-04-19T12:22:15.470Z,24.30
2019-04-19T12:24:44.717Z,24.00
2019-04-19T12:27:15.908Z,23.70
2019-04-19T12:29:48.146Z,24.00
2019-04-19T12:32:19.205Z,24.10
2019-04-19T12:34:47.168Z,24.00
2019-04-19T12:37:19.344Z,24.00
2019-04-19T12:39:50.755Z,24.10
2019-04-19T12:42:21.914Z,23.80
2019-04-19T12:44:48.104Z,23.50
2019-04-19T12:47:17.162Z,23.80
2019-04-19T12:49:53.649Z,23.00
2019-04-19T12:52:15.692Z,23.60
2019-04-19T12:54:45.884Z,23.90
2019-04-19T12:57:16.279Z,24.70
2019-04-19T12:59:44.264Z,24.40
2019-04-19T13:02:11.807Z,24.60
2019-04-19T13:04:44.376Z,23.90
2019-04-19T13:07:11.450Z,23.70
2019-04-19T13:09:41.194Z,24.20
2019-04-19T13:12:12.931Z,24.50
2019-04-19T13:14:43.753Z,23.80
2019-04-19T13:17:10.487Z,23.80
2019-04-19T13:19:47.504Z,23.50
2019-04-19T13:22:12.305Z,23.40
2019-04-19T13:24:40.506Z,23.80
2019-04-19T13:27:09.560Z,24.40
2019-04-19T13:29:41.521Z,25.10
2019-04-19T13:32:11.549Z,24.70
2019-04-19T13:34:51.531Z,25.50
2019-04-19T13:37:21.058Z,24.00
2019-04-19T13:39:50.180Z,24.70
2019-04-19T13:42:19.040Z,24.90
2019-04-19T13:44:47.417Z,25.00
2019-04-19T13:47:16.768Z,23.80
2019-04-19T13:49:44.425Z,23.60
2019-04-19T13:52:12.633Z,24.10
2019-04-19T13:54:44.870Z,24.50
2019-04-19T13:57:11.346Z,24.50
2019-04-19T13:59:49.098Z,24.70
2019-04-19T14:02:10.519Z,25.20
2019-04-19T14:04:39.684Z,25.20
2019-04-19T14:07:12.697Z,25.10
2019-04-19T14:09:43.331Z,25.40
2019-04-19T14:12:13.431Z,25.60
2019-04-19T14:14:46.658Z,25.60
2019-04-19T14:20:02.999Z,24.70
2019-04-19T14:22:33.954Z,25.50
2019-04-19T14:25:03.519Z,25.40
2019-04-19T14:27:33.228Z,24.00
2019-04-19T14:30:03.761Z,24.20
2019-04-19T14:32:34.843Z,24.30
2019-04-19T14:35:10.120Z,24.30
2019-04-19T14:37:38.299Z,24.40
2019-04-19T14:40:10.181Z,24.40
2019-04-19T14:42:42.467Z,24.80
2019-04-19T14:45:12.117Z,25.20
2019-04-19T14:47:39.148Z,24.50
2019-04-19T14:50:07.515Z,24.60
2019-04-19T14:52:34.388Z,24.60
2019-04-19T14:55:03.496Z,24.60
2019-04-19T14:57:38.072Z,24.50
2019-04-19T15:00:03.120Z,24.60
2019-04-19T15:02:34.726Z,24.60
2019-04-19T15:05:05.446Z,24.20
2019-04-19T15:07:35.160Z,23.60
2019-04-19T15:10:03.795Z,23.70
2019-04-19T15:12:34.163Z,24.10
2019-04-19T15:15:06.150Z,24.80
2019-04-19T15:17:35.979Z,25.20
2019-04-19T15:20:03.662Z,24.80
2019-04-19T15:22:32.579Z,25.10
2019-04-19T15:25:02.982Z,25.30
2019-04-19T15:27:41.111Z,25.60
2019-04-19T15:30:09.178Z,25.60
2019-04-19T15:32:36.494Z,24.40
2019-04-19T15:35:05.662Z,24.20
2019-04-19T15:37:37.970Z,24.10
2019-04-19T15:40:08.257Z,24.40
2019-04-19T15:42:36.580Z,24.70
2019-04-19T15:45:03.488Z,24.90
2019-04-19T15:47:32.659Z,24.80
2019-04-19T15:50:02.282Z,25.40
2019-04-19T15:52:30.650Z,25.70
2019-04-19T15:54:57.512Z,25.70
2019-04-19T15:57:26.554Z,25.40
2019-04-19T15:59:53.883Z,24.80
2019-04-19T16:02:22.319Z,24.60
2019-04-19T16:04:50.267Z,24.90
2019-04-19T16:07:17.191Z,24.80
2019-04-19T16:09:49.416Z,24.20
2019-04-19T16:12:19.639Z,23.90
2019-04-19T16:14:49.947Z,24.00
2019-04-19T16:17:18.856Z,24.00
2019-04-19T16:19:49.041Z,23.80
2019-04-19T16:22:18.543Z,24.30
2019-04-19T16:24:47.531Z,24.40
2019-04-19T16:27:17.553Z,23.90
2019-04-19T16:29:51.467Z,23.90
2019-04-19T16:32:14.714Z,24.70
2019-04-19T16:37:32.824Z,23.90
2019-04-19T16:40:02.550Z,23.80
2019-04-19T16:42:33.005Z,23.90
2019-04-19T16:45:03.760Z,24.30
2019-04-19T16:47:29.499Z,25.80
2019-04-19T16:49:56.472Z,29.00
2019-04-19T16:52:24.703Z,31.20
2019-04-19T16:54:52.343Z,30.20
2019-04-19T16:57:29.367Z,28.90
2019-04-19T16:59:52.197Z,27.30
2019-04-19T17:02:23.257Z,26.30
2019-04-19T17:04:52.706Z,25.60
2019-04-19T17:07:24.759Z,24.20
2019-04-19T17:09:57.349Z,23.50
2019-04-19T17:12:27.009Z,23.40
2019-04-19T17:14:56.993Z,23.00
2019-04-19T17:17:28.889Z,22.70
2019-04-19T17:19:57.139Z,22.60
2019-04-19T17:22:28.380Z,22.50
2019-04-19T17:24:58.999Z,22.50
2019-04-19T17:27:30.965Z,22.30
2019-04-19T17:30:02.091Z,22.00
2019-04-19T17:32:30.326Z,21.80
2019-04-19T17:35:00.355Z,21.60
2019-04-19T17:37:28.020Z,21.90
2019-04-19T17:39:58.581Z,21.90
2019-04-19T17:42:26.708Z,21.50
2019-04-19T17:44:53.573Z,21.40
2019-04-19T17:47:28.242Z,21.30
2019-04-19T17:49:52.822Z,21.00
2019-04-19T17:52:26.354Z,20.30
2019-04-19T17:55:02.849Z,20.20
2019-04-19T17:57:21.025Z,19.70
2019-04-19T17:59:48.088Z,19.50
2019-04-19T18:02:16.983Z,19.60
2019-04-19T18:04:46.187Z,19.50
2019-04-19T18:07:13.250Z,19.50
2019-04-19T18:12:29.366Z,19.30
2019-04-19T18:14:59.474Z,18.90
2019-04-19T18:31:28.660Z,18.60
2019-04-19T18:49:41.488Z,17.90
2019-04-19T18:52:13.435Z,18.10
2019-04-19T18:54:48.267Z,18.00
2019-04-19T18:57:07.853Z,17.80
2019-04-19T18:59:34.395Z,17.30
2019-04-19T19:02:11.392Z,16.90
2019-04-19T19:04:31.408Z,16.80
2019-04-19T19:06:59.309Z,16.90
2019-04-19T19:09:38.280Z,16.80
2019-04-19T19:12:01.073Z,16.50
2019-04-19T19:14:24.707Z,16.70
2019-04-19T19:16:54.303Z,16.80
2019-04-19T19:19:26.757Z,16.10
2019-04-19T19:21:51.471Z,16.50
2019-04-19T19:24:40.583Z,16.40
2019-04-19T19:26:56.962Z,15.90
2019-04-19T19:29:16.195Z,16.00
2019-04-19T19:31:43.064Z,16.40
2019-04-19T19:34:09.989Z,15.90
2019-04-19T19:36:44.305Z,15.80
2019-04-19T19:42:05.450Z,15.30
2019-04-19T19:42:16.708Z,15.60
2019-04-19T19:44:13.697Z,15.50
2019-04-19T19:46:51.812Z,15.20
2019-04-19T19:51:39.579Z,15.60
2019-04-19T19:54:43.395Z,15.30
2019-04-19T19:56:53.892Z,15.00
2019-04-19T19:59:10.087Z,15.30
2019-04-19T20:01:34.889Z,15.20
2019-04-19T20:03:52.454Z,15.40
2019-04-19T20:06:24.607Z,15.30
2019-04-19T20:08:47.966Z,15.40
2019-04-19T20:11:20.647Z,15.20
2019-04-19T20:13:48.194Z,15.30
2019-04-19T20:16:19.000Z,15.10
2019-04-19T20:18:45.390Z,14.70
2019-04-19T20:21:14.424Z,14.70
2019-04-19T20:23:55.070Z,14.40
2019-04-19T20:26:17.209Z,14.50
2019-04-19T20:28:37.919Z,14.20
2019-04-19T20:31:05.977Z,14.20
2019-04-19T20:33:44.550Z,14.50
2019-04-19T20:36:07.656Z,14.60
2019-04-19T20:38:40.450Z,14.20
2019-04-19T20:41:08.193Z,14.00
2019-04-19T20:43:48.036Z,14.00
2019-04-19T20:46:09.657Z,13.90
2019-04-19T20:48:33.183Z,14.00
2019-04-19T20:51:08.235Z,14.20
2019-04-19T20:53:38.642Z,13.70
2019-04-19T20:56:30.270Z,13.60
2019-04-19T20:58:38.791Z,13.50
2019-04-19T21:00:58.893Z,13.50
2019-04-19T21:03:32.985Z,13.90
2019-04-19T21:05:56.914Z,14.20
2019-04-19T21:08:30.240Z,14.00
2019-04-19T21:11:02.744Z,14.20
2019-04-19T21:13:31.361Z,13.60
2019-04-19T21:15:58.482Z,13.70
2019-04-19T21:18:29.196Z,13.70
2019-04-19T21:21:06.364Z,13.30
2019-04-19T21:26:23.032Z,12.80
2019-04-19T21:28:49.822Z,13.00
2019-04-19T21:31:36.115Z,12.70
2019-04-19T21:33:52.184Z,12.60
2019-04-19T21:36:19.973Z,12.70
2019-04-19T21:38:56.228Z,13.10
2019-04-19T21:41:23.703Z,12.90
2019-04-19T21:43:49.682Z,12.80
2019-04-19T21:46:20.127Z,13.30
2019-04-19T21:48:48.981Z,12.70
2019-04-19T21:51:21.901Z,12.80
2019-04-19T21:53:48.331Z,12.90
2019-04-19T21:56:17.197Z,13.10
2019-04-19T21:58:47.578Z,13.00
2019-04-19T22:01:17.834Z,12.90
2019-04-19T22:06:34.988Z,13.00
2019-04-19T22:09:08.694Z,12.80
2019-04-19T22:11:32.220Z,12.50
2019-04-19T22:14:00.302Z,12.30
2019-04-19T22:16:35.299Z,12.30
2019-04-19T22:18:59.883Z,12.50
2019-04-19T22:21:33.487Z,12.20
2019-04-19T22:23:58.596Z,12.40
2019-04-19T22:26:34.478Z,12.60
2019-04-19T22:29:01.710Z,12.10
2019-04-19T22:31:32.661Z,11.60
2019-04-19T22:33:56.649Z,11.50
2019-04-19T22:36:25.771Z,11.30
2019-04-19T22:38:58.338Z,11.20
2019-04-19T22:41:26.721Z,11.20
2019-04-19T22:43:56.446Z,11.70
2019-04-19T22:46:23.678Z,11.60
2019-04-19T22:49:00.157Z,11.80
2019-04-19T22:51:24.533Z,11.60
2019-04-19T22:53:52.661Z,11.10
2019-04-19T22:56:34.006Z,11.00
2019-04-19T22:58:58.973Z,11.10
2019-04-19T23:01:31.217Z,10.50
2019-04-19T23:04:00.129Z,10.50
2019-04-19T23:06:27.520Z,11.00
2019-04-19T23:08:52.982Z,11.10
2019-04-19T23:11:23.591Z,10.90
2019-04-19T23:13:51.482Z,10.80
2019-04-19T23:16:21.569Z,10.90
2019-04-19T23:18:56.870Z,11.30
2019-04-19T23:21:24.596Z,11.30
2019-04-19T23:23:55.508Z,10.80
2019-04-19T23:26:46.242Z,10.60
2019-04-19T23:28:53.181Z,10.40
2019-04-19T23:31:22.913Z,9.80
2019-04-19T23:33:57.121Z,10.00
2019-04-19T23:36:22.889Z,10.50
2019-04-19T23:38:47.542Z,10.50
2019-04-19T23:41:21.496Z,10.40
2019-04-19T23:43:47.673Z,10.40
2019-04-19T23:46:26.168Z,10.20
2019-04-19T23:48:54.361Z,10.40
2019-04-19T23:51:21.666Z,10.40
2019-04-19T23:53:50.149Z,10.50
2019-04-19T23:56:29.770Z,10.90
2019-04-19T23:58:52.274Z,10.70
